sensor_id;sensor_type;location;lat;lon;timestamp;temperature;humidity
26537;DHT22;14204;51.262;5.488;2023-02-01T00:00:09;7.00;99.90
26537;DHT22;14204;51.262;5.488;2023-02-01T00:02:35;7.10;99.90
26537;DHT22;14204;51.262;5.488;2023-02-01T00:05:05;7.00;99.90
26537;DHT22;14204;51.262;5.488;2023-02-01T00:07:31;7.00;99.90
26537;DHT22;14204;51.262;5.488;2023-02-01T00:09:56;7.00;99.90
26537;DHT22;14204;51.262;5.488;2023-02-01T00:12:22;7.00;99.90
26537;DHT22;14204;51.262;5.488;2023-02-01T00:14:47;7.00;99.90
26537;DHT22;14204;51.262;5.488;2023-02-01T00:17:13;6.90;99.90
26537;DHT22;14204;51.262;5.488;2023-02-01T00:19:39;6.80;99.90
26537;DHT22;14204;51.262;5.488;2023-02-01T00:22:05;6.70;99.90
26537;DHT22;14204;51.262;5.488;2023-02-01T00:24:30;6.70;99.90
26537;DHT22;14204;51.262;5.488;2023-02-01T00:26:56;6.70;99.90
26537;DHT22;14204;51.262;5.488;2023-02-01T00:29:22;6.60;99.90
26537;DHT22;14204;51.262;5.488;2023-02-01T00:31:50;6.60;99.90
26537;DHT22;14204;51.262;5.488;2023-02-01T00:34:17;6.60;99.90
26537;DHT22;14204;51.262;5.488;2023-02-01T00:36:43;6.60;99.90
26537;DHT22;14204;51.262;5.488;2023-02-01T00:39:09;6.50;99.90
26537;DHT22;14204;51.262;5.488;2023-02-01T00:41:35;6.40;99.90
26537;DHT22;14204;51.262;5.488;2023-02-01T00:44:01;6.40;99.90
26537;DHT22;14204;51.262;5.488;2023-02-01T00:46:27;6.40;99.90
26537;DHT22;14204;51.262;5.488;2023-02-01T00:48:53;6.50;99.90
26537;DHT22;14204;51.262;5.488;2023-02-01T00:51:22;6.40;99.90
26537;DHT22;14204;51.262;5.488;2023-02-01T00:53:48;6.40;99.90
26537;DHT22;14204;51.262;5.488;2023-02-01T00:56:14;6.40;99.90
26537;DHT22;14204;51.262;5.488;2023-02-01T00:58:41;6.50;99.90
26537;DHT22;14204;51.262;5.488;2023-02-01T01:03:48;6.50;99.90
26537;DHT22;14204;51.262;5.488;2023-02-01T01:06:17;6.50;99.90
26537;DHT22;14204;51.262;5.488;2023-02-01T01:08:44;6.40;99.90
26537;DHT22;14204;51.262;5.488;2023-02-01T01:11:15;6.40;99.90
26537;DHT22;14204;51.262;5.488;2023-02-01T01:13:42;6.40;99.90
26537;DHT22;14204;51.262;5.488;2023-02-01T01:16:09;6.40;99.90
26537;DHT22;14204;51.262;5.488;2023-02-01T01:18:35;6.50;99.90
26537;DHT22;14204;51.262;5.488;2023-02-01T01:21:02;6.40;99.90
26537;DHT22;14204;51.262;5.488;2023-02-01T01:23:29;6.30;99.90
26537;DHT22;14204;51.262;5.488;2023-02-01T01:25:55;6.30;99.90
26537;DHT22;14204;51.262;5.488;2023-02-01T01:28:20;6.20;99.90
26537;DHT22;14204;51.262;5.488;2023-02-01T01:30:46;6.20;99.90
26537;DHT22;14204;51.262;5.488;2023-02-01T01:33:11;6.20;99.90
26537;DHT22;14204;51.262;5.488;2023-02-01T01:35:37;6.30;99.90
26537;DHT22;14204;51.262;5.488;2023-02-01T01:38:03;6.20;99.90
26537;DHT22;14204;51.262;5.488;2023-02-01T01:40:29;6.30;99.90
26537;DHT22;14204;51.262;5.488;2023-02-01T01:42:56;6.20;99.90
26537;DHT22;14204;51.262;5.488;2023-02-01T01:45:30;6.20;99.90
26537;DHT22;14204;51.262;5.488;2023-02-01T01:47:59;6.20;99.90
26537;DHT22;14204;51.262;5.488;2023-02-01T01:50:41;6.30;99.90
26537;DHT22;14204;51.262;5.488;2023-02-01T01:53:11;6.20;99.90
26537;DHT22;14204;51.262;5.488;2023-02-01T01:55:39;6.10;99.90
26537;DHT22;14204;51.262;5.488;2023-02-01T01:58:16;6.10;99.90
26537;DHT22;14204;51.262;5.488;2023-02-01T02:00:43;6.10;99.90
26537;DHT22;14204;51.262;5.488;2023-02-01T02:03:39;6.10;99.90
26537;DHT22;14204;51.262;5.488;2023-02-01T02:08:45;6.00;99.90
26537;DHT22;14204;51.262;5.488;2023-02-01T02:11:12;6.10;99.90
26537;DHT22;14204;51.262;5.488;2023-02-01T02:13:42;6.00;99.90
26537;DHT22;14204;51.262;5.488;2023-02-01T02:44:35;6.00;99.90
26537;DHT22;14204;51.262;5.488;2023-02-01T02:47:33;6.00;99.90
26537;DHT22;14204;51.262;5.488;2023-02-01T02:50:11;6.00;99.90
26537;DHT22;14204;51.262;5.488;2023-02-01T02:53:07;6.00;99.90
26537;DHT22;14204;51.262;5.488;2023-02-01T02:55:54;6.00;99.90
26537;DHT22;14204;51.262;5.488;2023-02-01T02:58:40;6.10;99.90
26537;DHT22;14204;51.262;5.488;2023-02-01T03:01:26;6.10;99.90
26537;DHT22;14204;51.262;5.488;2023-02-01T03:04:11;6.10;99.90
26537;DHT22;14204;51.262;5.488;2023-02-01T03:06:42;6.10;99.90
26537;DHT22;14204;51.262;5.488;2023-02-01T03:09:33;6.00;99.90
26537;DHT22;14204;51.262;5.488;2023-02-01T03:12:02;6.00;99.90
26537;DHT22;14204;51.262;5.488;2023-02-01T03:14:50;6.00;99.90
26537;DHT22;14204;51.262;5.488;2023-02-01T03:17:22;6.10;99.90
26537;DHT22;14204;51.262;5.488;2023-02-01T03:19:52;6.10;99.90
26537;DHT22;14204;51.262;5.488;2023-02-01T03:22:23;6.10;99.90
26537;DHT22;14204;51.262;5.488;2023-02-01T03:24:53;6.10;99.90
26537;DHT22;14204;51.262;5.488;2023-02-01T03:27:23;6.10;99.90
26537;DHT22;14204;51.262;5.488;2023-02-01T03:32:33;6.10;99.90
26537;DHT22;14204;51.262;5.488;2023-02-01T03:35:25;6.10;99.90
26537;DHT22;14204;51.262;5.488;2023-02-01T03:38:01;6.10;99.90
26537;DHT22;14204;51.262;5.488;2023-02-01T03:40:28;6.10;99.90
26537;DHT22;14204;51.262;5.488;2023-02-01T03:42:59;6.10;99.90
26537;DHT22;14204;51.262;5.488;2023-02-01T03:45:31;6.20;99.90
26537;DHT22;14204;51.262;5.488;2023-02-01T03:47:59;6.10;99.90
26537;DHT22;14204;51.262;5.488;2023-02-01T03:50:26;6.10;99.90
26537;DHT22;14204;51.262;5.488;2023-02-01T03:53:22;6.10;99.90
26537;DHT22;14204;51.262;5.488;2023-02-01T03:55:49;6.10;99.90
26537;DHT22;14204;51.262;5.488;2023-02-01T03:58:18;6.10;99.90
26537;DHT22;14204;51.262;5.488;2023-02-01T04:00:56;6.20;99.90
26537;DHT22;14204;51.262;5.488;2023-02-01T04:03:23;6.20;99.90
26537;DHT22;14204;51.262;5.488;2023-02-01T04:05:50;6.20;99.90
26537;DHT22;14204;51.262;5.488;2023-02-01T04:08:17;6.00;99.90
26537;DHT22;14204;51.262;5.488;2023-02-01T04:10:42;6.10;99.90
26537;DHT22;14204;51.262;5.488;2023-02-01T04:13:09;6.10;99.90
26537;DHT22;14204;51.262;5.488;2023-02-01T04:15:35;6.10;99.90
26537;DHT22;14204;51.262;5.488;2023-02-01T04:18:00;6.00;99.90
26537;DHT22;14204;51.262;5.488;2023-02-01T04:20:26;6.00;99.90
26537;DHT22;14204;51.262;5.488;2023-02-01T04:22:52;6.00;99.90
26537;DHT22;14204;51.262;5.488;2023-02-01T04:25:17;6.00;99.90
26537;DHT22;14204;51.262;5.488;2023-02-01T04:27:43;6.00;99.90
26537;DHT22;14204;51.262;5.488;2023-02-01T04:30:09;6.00;99.90
26537;DHT22;14204;51.262;5.488;2023-02-01T04:32:36;6.00;99.90
26537;DHT22;14204;51.262;5.488;2023-02-01T04:35:03;6.00;99.90
26537;DHT22;14204;51.262;5.488;2023-02-01T04:37:28;6.00;99.90
26537;DHT22;14204;51.262;5.488;2023-02-01T04:39:54;6.00;99.90
26537;DHT22;14204;51.262;5.488;2023-02-01T04:42:20;6.00;99.90
26537;DHT22;14204;51.262;5.488;2023-02-01T04:44:46;6.00;99.90
26537;DHT22;14204;51.262;5.488;2023-02-01T04:47:11;6.00;99.90
26537;DHT22;14204;51.262;5.488;2023-02-01T04:49:37;6.00;99.90
26537;DHT22;14204;51.262;5.488;2023-02-01T04:52:03;5.90;99.90
26537;DHT22;14204;51.262;5.488;2023-02-01T04:54:29;6.00;99.90
26537;DHT22;14204;51.262;5.488;2023-02-01T04:56:54;6.00;99.90
26537;DHT22;14204;51.262;5.488;2023-02-01T04:59:20;6.00;99.90
26537;DHT22;14204;51.262;5.488;2023-02-01T05:01:45;6.00;99.90
26537;DHT22;14204;51.262;5.488;2023-02-01T05:04:11;6.00;99.90
26537;DHT22;14204;51.262;5.488;2023-02-01T05:06:36;5.90;99.90
26537;DHT22;14204;51.262;5.488;2023-02-01T05:09:02;6.00;99.90
26537;DHT22;14204;51.262;5.488;2023-02-01T05:11:28;5.90;99.90
26537;DHT22;14204;51.262;5.488;2023-02-01T05:14:12;5.90;99.90
26537;DHT22;14204;51.262;5.488;2023-02-01T05:16:37;5.80;99.90
26537;DHT22;14204;51.262;5.488;2023-02-01T05:19:03;5.80;99.90
26537;DHT22;14204;51.262;5.488;2023-02-01T05:21:28;5.80;99.90
26537;DHT22;14204;51.262;5.488;2023-02-01T05:23:54;5.80;99.90
26537;DHT22;14204;51.262;5.488;2023-02-01T05:26:35;5.90;99.90
26537;DHT22;14204;51.262;5.488;2023-02-01T05:29:01;5.80;99.90
26537;DHT22;14204;51.262;5.488;2023-02-01T05:31:27;5.80;99.90
26537;DHT22;14204;51.262;5.488;2023-02-01T05:33:53;5.70;99.90
26537;DHT22;14204;51.262;5.488;2023-02-01T05:36:18;5.70;99.90
26537;DHT22;14204;51.262;5.488;2023-02-01T05:38:44;5.70;99.90
26537;DHT22;14204;51.262;5.488;2023-02-01T05:41:09;5.70;99.90
26537;DHT22;14204;51.262;5.488;2023-02-01T05:43:35;5.80;99.90
26537;DHT22;14204;51.262;5.488;2023-02-01T05:46:01;5.80;99.90
26537;DHT22;14204;51.262;5.488;2023-02-01T05:48:26;5.80;99.90
26537;DHT22;14204;51.262;5.488;2023-02-01T05:50:52;5.70;99.90
26537;DHT22;14204;51.262;5.488;2023-02-01T05:53:18;5.70;99.90
26537;DHT22;14204;51.262;5.488;2023-02-01T05:55:43;5.70;99.90
26537;DHT22;14204;51.262;5.488;2023-02-01T05:58:09;5.70;99.90
26537;DHT22;14204;51.262;5.488;2023-02-01T06:00:35;5.70;99.90
26537;DHT22;14204;51.262;5.488;2023-02-01T06:03:00;5.80;99.90
26537;DHT22;14204;51.262;5.488;2023-02-01T06:05:26;5.80;99.90
26537;DHT22;14204;51.262;5.488;2023-02-01T06:07:52;5.80;99.90
26537;DHT22;14204;51.262;5.488;2023-02-01T06:10:18;5.80;99.90
26537;DHT22;14204;51.262;5.488;2023-02-01T06:12:44;5.80;99.90
26537;DHT22;14204;51.262;5.488;2023-02-01T06:15:11;5.80;99.90
26537;DHT22;14204;51.262;5.488;2023-02-01T06:17:37;5.70;99.90
26537;DHT22;14204;51.262;5.488;2023-02-01T06:20:04;5.70;99.90
26537;DHT22;14204;51.262;5.488;2023-02-01T06:22:32;5.70;99.90
26537;DHT22;14204;51.262;5.488;2023-02-01T06:24:57;5.80;99.90
26537;DHT22;14204;51.262;5.488;2023-02-01T06:27:24;5.80;99.90
26537;DHT22;14204;51.262;5.488;2023-02-01T06:29:50;5.80;99.90
26537;DHT22;14204;51.262;5.488;2023-02-01T06:32:15;5.80;99.90
26537;DHT22;14204;51.262;5.488;2023-02-01T06:34:43;5.90;99.90
26537;DHT22;14204;51.262;5.488;2023-02-01T06:37:08;5.90;99.90
26537;DHT22;14204;51.262;5.488;2023-02-01T06:39:36;6.00;99.90
26537;DHT22;14204;51.262;5.488;2023-02-01T06:42:02;6.00;99.90
26537;DHT22;14204;51.262;5.488;2023-02-01T06:44:27;6.00;99.90
26537;DHT22;14204;51.262;5.488;2023-02-01T06:46:53;6.00;99.90
26537;DHT22;14204;51.262;5.488;2023-02-01T06:49:20;6.00;99.90
26537;DHT22;14204;51.262;5.488;2023-02-01T06:51:45;6.10;99.90
26537;DHT22;14204;51.262;5.488;2023-02-01T06:54:11;6.00;99.90
26537;DHT22;14204;51.262;5.488;2023-02-01T06:56:37;6.10;99.90
26537;DHT22;14204;51.262;5.488;2023-02-01T06:59:07;6.00;99.90
26537;DHT22;14204;51.262;5.488;2023-02-01T07:01:33;6.00;99.90
26537;DHT22;14204;51.262;5.488;2023-02-01T07:03:59;6.10;99.90
26537;DHT22;14204;51.262;5.488;2023-02-01T07:06:24;6.00;99.90
26537;DHT22;14204;51.262;5.488;2023-02-01T07:08:50;6.00;99.90
26537;DHT22;14204;51.262;5.488;2023-02-01T07:11:18;6.10;99.90
26537;DHT22;14204;51.262;5.488;2023-02-01T07:13:44;6.00;99.90
26537;DHT22;14204;51.262;5.488;2023-02-01T07:16:15;6.00;99.90
26537;DHT22;14204;51.262;5.488;2023-02-01T07:18:41;6.00;99.90
26537;DHT22;14204;51.262;5.488;2023-02-01T07:21:07;6.00;99.90
26537;DHT22;14204;51.262;5.488;2023-02-01T07:23:33;6.10;99.90
26537;DHT22;14204;51.262;5.488;2023-02-01T07:26:02;6.00;99.90
26537;DHT22;14204;51.262;5.488;2023-02-01T07:28:30;6.00;99.90
26537;DHT22;14204;51.262;5.488;2023-02-01T07:31:02;6.00;99.90
26537;DHT22;14204;51.262;5.488;2023-02-01T07:33:27;6.00;99.90
26537;DHT22;14204;51.262;5.488;2023-02-01T07:35:53;6.00;99.90
26537;DHT22;14204;51.262;5.488;2023-02-01T07:38:19;6.00;99.90
26537;DHT22;14204;51.262;5.488;2023-02-01T07:40:46;6.00;99.90
26537;DHT22;14204;51.262;5.488;2023-02-01T07:43:12;6.10;99.90
26537;DHT22;14204;51.262;5.488;2023-02-01T07:45:38;6.00;99.90
26537;DHT22;14204;51.262;5.488;2023-02-01T07:48:04;6.00;99.90
26537;DHT22;14204;51.262;5.488;2023-02-01T07:50:30;6.00;99.90
26537;DHT22;14204;51.262;5.488;2023-02-01T07:52:59;6.00;99.90
26537;DHT22;14204;51.262;5.488;2023-02-01T07:55:25;6.00;99.90
26537;DHT22;14204;51.262;5.488;2023-02-01T07:57:51;6.00;99.90
26537;DHT22;14204;51.262;5.488;2023-02-01T08:00:17;6.00;99.90
26537;DHT22;14204;51.262;5.488;2023-02-01T08:03:03;6.10;99.90
26537;DHT22;14204;51.262;5.488;2023-02-01T08:05:29;6.20;99.90
26537;DHT22;14204;51.262;5.488;2023-02-01T08:07:55;6.10;99.90
26537;DHT22;14204;51.262;5.488;2023-02-01T08:10:20;6.20;99.90
26537;DHT22;14204;51.262;5.488;2023-02-01T08:12:46;6.10;99.90
26537;DHT22;14204;51.262;5.488;2023-02-01T08:15:16;6.10;99.90
26537;DHT22;14204;51.262;5.488;2023-02-01T08:17:49;6.10;99.90
26537;DHT22;14204;51.262;5.488;2023-02-01T08:20:15;6.10;99.90
26537;DHT22;14204;51.262;5.488;2023-02-01T08:22:41;6.10;99.90
26537;DHT22;14204;51.262;5.488;2023-02-01T08:25:07;6.20;99.90
26537;DHT22;14204;51.262;5.488;2023-02-01T08:27:33;6.20;99.90
26537;DHT22;14204;51.262;5.488;2023-02-01T08:29:59;6.30;99.90
26537;DHT22;14204;51.262;5.488;2023-02-01T08:32:26;6.20;99.90
26537;DHT22;14204;51.262;5.488;2023-02-01T08:34:51;6.20;99.90
26537;DHT22;14204;51.262;5.488;2023-02-01T08:37:17;6.20;99.90
26537;DHT22;14204;51.262;5.488;2023-02-01T08:39:43;6.30;99.90
26537;DHT22;14204;51.262;5.488;2023-02-01T08:42:10;6.40;99.90
26537;DHT22;14204;51.262;5.488;2023-02-01T08:44:55;6.50;99.90
26537;DHT22;14204;51.262;5.488;2023-02-01T08:47:21;6.50;99.90
26537;DHT22;14204;51.262;5.488;2023-02-01T08:49:47;6.50;99.90
26537;DHT22;14204;51.262;5.488;2023-02-01T08:52:13;6.50;99.90
26537;DHT22;14204;51.262;5.488;2023-02-01T08:54:39;6.60;99.90
26537;DHT22;14204;51.262;5.488;2023-02-01T08:57:06;6.60;99.90
26537;DHT22;14204;51.262;5.488;2023-02-01T08:59:32;6.70;99.90
26537;DHT22;14204;51.262;5.488;2023-02-01T09:01:57;6.70;99.90
26537;DHT22;14204;51.262;5.488;2023-02-01T09:04:23;6.70;99.90
26537;DHT22;14204;51.262;5.488;2023-02-01T09:06:48;6.70;99.90
26537;DHT22;14204;51.262;5.488;2023-02-01T09:09:14;6.80;99.90
26537;DHT22;14204;51.262;5.488;2023-02-01T09:11:40;6.80;99.90
26537;DHT22;14204;51.262;5.488;2023-02-01T09:14:05;6.80;99.90
26537;DHT22;14204;51.262;5.488;2023-02-01T09:16:31;6.80;99.90
26537;DHT22;14204;51.262;5.488;2023-02-01T09:18:57;6.80;99.90
26537;DHT22;14204;51.262;5.488;2023-02-01T09:21:22;6.90;99.90
26537;DHT22;14204;51.262;5.488;2023-02-01T09:23:50;6.80;99.90
26537;DHT22;14204;51.262;5.488;2023-02-01T09:26:16;6.80;99.90
26537;DHT22;14204;51.262;5.488;2023-02-01T09:28:42;6.80;99.90
26537;DHT22;14204;51.262;5.488;2023-02-01T09:31:08;6.90;99.90
26537;DHT22;14204;51.262;5.488;2023-02-01T09:33:33;6.90;99.90
26537;DHT22;14204;51.262;5.488;2023-02-01T09:36:02;7.00;99.90
26537;DHT22;14204;51.262;5.488;2023-02-01T09:38:28;7.00;99.90
26537;DHT22;14204;51.262;5.488;2023-02-01T09:40:54;7.10;99.90
26537;DHT22;14204;51.262;5.488;2023-02-01T09:43:35;7.20;99.90
26537;DHT22;14204;51.262;5.488;2023-02-01T09:48:55;7.20;99.90
26537;DHT22;14204;51.262;5.488;2023-02-01T09:51:27;7.30;99.90
26537;DHT22;14204;51.262;5.488;2023-02-01T09:54:06;7.40;99.90
26537;DHT22;14204;51.262;5.488;2023-02-01T09:59:23;7.50;99.90
26537;DHT22;14204;51.262;5.488;2023-02-01T10:01:51;7.50;99.90
26537;DHT22;14204;51.262;5.488;2023-02-01T10:04:17;7.60;99.90
26537;DHT22;14204;51.262;5.488;2023-02-01T10:17:45;8.00;99.90
26537;DHT22;14204;51.262;5.488;2023-02-01T10:25:54;8.20;99.90
26537;DHT22;14204;51.262;5.488;2023-02-01T10:28:20;8.30;99.90
26537;DHT22;14204;51.262;5.488;2023-02-01T10:30:48;8.30;99.90
26537;DHT22;14204;51.262;5.488;2023-02-01T10:35:46;8.40;99.90
26537;DHT22;14204;51.262;5.488;2023-02-01T10:38:24;8.50;99.90
26537;DHT22;14204;51.262;5.488;2023-02-01T10:40:53;8.60;99.90
26537;DHT22;14204;51.262;5.488;2023-02-01T10:43:20;8.50;99.90
26537;DHT22;14204;51.262;5.488;2023-02-01T10:45:46;8.60;99.90
26537;DHT22;14204;51.262;5.488;2023-02-01T10:48:12;8.60;99.90
26537;DHT22;14204;51.262;5.488;2023-02-01T10:51:10;8.60;99.90
26537;DHT22;14204;51.262;5.488;2023-02-01T10:53:52;8.60;99.90
26537;DHT22;14204;51.262;5.488;2023-02-01T10:56:25;8.60;99.90
26537;DHT22;14204;51.262;5.488;2023-02-01T10:58:58;8.50;99.90
26537;DHT22;14204;51.262;5.488;2023-02-01T11:01:42;8.60;99.90
26537;DHT22;14204;51.262;5.488;2023-02-01T11:04:15;8.60;99.90
26537;DHT22;14204;51.262;5.488;2023-02-01T11:06:44;8.70;99.90
26537;DHT22;14204;51.262;5.488;2023-02-01T11:09:20;8.80;99.90
26537;DHT22;14204;51.262;5.488;2023-02-01T11:16:53;9.00;99.90
26537;DHT22;14204;51.262;5.488;2023-02-01T11:19:20;9.00;99.90
26537;DHT22;14204;51.262;5.488;2023-02-01T11:21:53;9.10;99.90
26537;DHT22;14204;51.262;5.488;2023-02-01T11:24:32;9.10;99.90
26537;DHT22;14204;51.262;5.488;2023-02-01T11:27:00;9.20;99.90
26537;DHT22;14204;51.262;5.488;2023-02-01T11:29:35;9.20;99.90
26537;DHT22;14204;51.262;5.488;2023-02-01T11:32:02;9.30;99.90
26537;DHT22;14204;51.262;5.488;2023-02-01T11:34:38;9.30;99.90
26537;DHT22;14204;51.262;5.488;2023-02-01T11:37:04;9.30;99.90
26537;DHT22;14204;51.262;5.488;2023-02-01T11:39:35;9.20;99.90
26537;DHT22;14204;51.262;5.488;2023-02-01T11:42:14;9.30;99.90
26537;DHT22;14204;51.262;5.488;2023-02-01T11:44:44;9.20;99.90
26537;DHT22;14204;51.262;5.488;2023-02-01T11:47:39;9.20;99.90
26537;DHT22;14204;51.262;5.488;2023-02-01T11:50:17;9.20;99.90
26537;DHT22;14204;51.262;5.488;2023-02-01T11:53:27;9.20;99.90
26537;DHT22;14204;51.262;5.488;2023-02-01T12:01:21;9.10;99.90
26537;DHT22;14204;51.262;5.488;2023-02-01T12:06:55;9.20;99.90
26537;DHT22;14204;51.262;5.488;2023-02-01T12:12:26;9.20;99.90
26537;DHT22;14204;51.262;5.488;2023-02-01T12:17:51;9.20;99.90
26537;DHT22;14204;51.262;5.488;2023-02-01T12:20:37;9.30;99.90
26537;DHT22;14204;51.262;5.488;2023-02-01T12:36:48;9.20;99.90
26537;DHT22;14204;51.262;5.488;2023-02-01T12:39:44;9.20;99.90
26537;DHT22;14204;51.262;5.488;2023-02-01T12:42:18;9.20;99.90
26537;DHT22;14204;51.262;5.488;2023-02-01T12:44:55;9.20;99.90
26537;DHT22;14204;51.262;5.488;2023-02-01T12:47:38;9.20;99.90
26537;DHT22;14204;51.262;5.488;2023-02-01T12:50:18;9.20;99.90
26537;DHT22;14204;51.262;5.488;2023-02-01T12:52:49;9.20;99.90
26537;DHT22;14204;51.262;5.488;2023-02-01T12:55:25;9.30;99.90
26537;DHT22;14204;51.262;5.488;2023-02-01T12:58:13;9.20;99.90
26537;DHT22;14204;51.262;5.488;2023-02-01T13:00:43;9.30;99.90
26537;DHT22;14204;51.262;5.488;2023-02-01T13:05:48;9.20;99.90
26537;DHT22;14204;51.262;5.488;2023-02-01T13:08:22;9.20;99.90
26537;DHT22;14204;51.262;5.488;2023-02-01T13:11:09;9.30;99.90
26537;DHT22;14204;51.262;5.488;2023-02-01T13:13:44;9.30;99.90
26537;DHT22;14204;51.262;5.488;2023-02-01T13:16:37;9.30;99.90
26537;DHT22;14204;51.262;5.488;2023-02-01T13:19:13;9.40;99.90
26537;DHT22;14204;51.262;5.488;2023-02-01T13:21:45;9.40;99.90
26537;DHT22;14204;51.262;5.488;2023-02-01T13:24:40;9.40;99.90
26537;DHT22;14204;51.262;5.488;2023-02-01T13:27:15;9.40;99.90
26537;DHT22;14204;51.262;5.488;2023-02-01T13:29:58;9.30;99.90
26537;DHT22;14204;51.262;5.488;2023-02-01T13:43:38;9.50;99.90
26537;DHT22;14204;51.262;5.488;2023-02-01T13:46:09;9.30;99.90
26537;DHT22;14204;51.262;5.488;2023-02-01T13:48:54;9.40;99.90
26537;DHT22;14204;51.262;5.488;2023-02-01T13:51:41;9.40;99.90
26537;DHT22;14204;51.262;5.488;2023-02-01T13:54:38;9.50;99.90
26537;DHT22;14204;51.262;5.488;2023-02-01T13:57:13;9.60;99.90
26537;DHT22;14204;51.262;5.488;2023-02-01T14:10:55;9.50;99.90
26537;DHT22;14204;51.262;5.488;2023-02-01T14:13:36;9.50;99.90
26537;DHT22;14204;51.262;5.488;2023-02-01T14:21:19;9.50;99.90
26537;DHT22;14204;51.262;5.488;2023-02-01T14:23:55;9.50;99.90
26537;DHT22;14204;51.262;5.488;2023-02-01T14:26:25;9.60;99.90
26537;DHT22;14204;51.262;5.488;2023-02-01T14:28:53;9.60;99.90
26537;DHT22;14204;51.262;5.488;2023-02-01T14:31:39;9.60;99.90
26537;DHT22;14204;51.262;5.488;2023-02-01T14:35:16;9.50;99.90
26537;DHT22;14204;51.262;5.488;2023-02-01T14:37:24;9.60;99.90
26537;DHT22;14204;51.262;5.488;2023-02-01T14:42:45;9.40;99.90
26537;DHT22;14204;51.262;5.488;2023-02-01T14:47:51;9.50;99.90
26537;DHT22;14204;51.262;5.488;2023-02-01T14:53:14;9.40;99.90
26537;DHT22;14204;51.262;5.488;2023-02-01T14:55:54;9.40;99.90
26537;DHT22;14204;51.262;5.488;2023-02-01T14:58:44;9.40;99.90
26537;DHT22;14204;51.262;5.488;2023-02-01T15:06:23;9.50;99.90
26537;DHT22;14204;51.262;5.488;2023-02-01T15:08:54;9.50;99.90
26537;DHT22;14204;51.262;5.488;2023-02-01T15:11:20;9.40;99.90
26537;DHT22;14204;51.262;5.488;2023-02-01T15:13:50;9.50;99.90
26537;DHT22;14204;51.262;5.488;2023-02-01T15:16:19;9.40;99.90
26537;DHT22;14204;51.262;5.488;2023-02-01T15:18:45;9.50;99.90
26537;DHT22;14204;51.262;5.488;2023-02-01T15:21:44;9.40;99.90
26537;DHT22;14204;51.262;5.488;2023-02-01T15:24:13;9.40;99.90
26537;DHT22;14204;51.262;5.488;2023-02-01T15:26:39;9.40;99.90
26537;DHT22;14204;51.262;5.488;2023-02-01T15:29:08;9.40;99.90
26537;DHT22;14204;51.262;5.488;2023-02-01T15:31:37;9.30;99.90
26537;DHT22;14204;51.262;5.488;2023-02-01T15:34:03;9.40;99.90
26537;DHT22;14204;51.262;5.488;2023-02-01T15:36:29;9.30;99.90
26537;DHT22;14204;51.262;5.488;2023-02-01T15:39:22;9.30;99.90
26537;DHT22;14204;51.262;5.488;2023-02-01T15:41:54;9.30;99.90
26537;DHT22;14204;51.262;5.488;2023-02-01T15:46:51;9.30;99.90
26537;DHT22;14204;51.262;5.488;2023-02-01T15:49:30;9.30;99.90
26537;DHT22;14204;51.262;5.488;2023-02-01T15:51:58;9.30;99.90
26537;DHT22;14204;51.262;5.488;2023-02-01T15:54:40;9.30;99.90
26537;DHT22;14204;51.262;5.488;2023-02-01T15:57:07;9.30;99.90
26537;DHT22;14204;51.262;5.488;2023-02-01T15:59:44;9.30;99.90
26537;DHT22;14204;51.262;5.488;2023-02-01T16:02:35;9.20;99.90
26537;DHT22;14204;51.262;5.488;2023-02-01T16:05:04;9.20;99.90
26537;DHT22;14204;51.262;5.488;2023-02-01T16:07:33;9.20;99.90
26537;DHT22;14204;51.262;5.488;2023-02-01T16:10:00;9.20;99.90
26537;DHT22;14204;51.262;5.488;2023-02-01T16:15:04;9.20;99.90
26537;DHT22;14204;51.262;5.488;2023-02-01T16:17:31;9.20;99.90
26537;DHT22;14204;51.262;5.488;2023-02-01T16:19:56;9.30;99.90
26537;DHT22;14204;51.262;5.488;2023-02-01T16:22:23;9.20;99.90
26537;DHT22;14204;51.262;5.488;2023-02-01T16:24:49;9.20;99.90
26537;DHT22;14204;51.262;5.488;2023-02-01T16:27:15;9.10;99.90
26537;DHT22;14204;51.262;5.488;2023-02-01T16:29:40;9.20;99.90
26537;DHT22;14204;51.262;5.488;2023-02-01T16:32:08;9.20;99.90
26537;DHT22;14204;51.262;5.488;2023-02-01T16:34:38;9.20;99.90
26537;DHT22;14204;51.262;5.488;2023-02-01T16:37:05;9.20;99.90
26537;DHT22;14204;51.262;5.488;2023-02-01T16:39:35;9.30;99.90
26537;DHT22;14204;51.262;5.488;2023-02-01T16:42:10;9.10;99.90
26537;DHT22;14204;51.262;5.488;2023-02-01T16:44:35;9.10;99.90
26537;DHT22;14204;51.262;5.488;2023-02-01T16:47:02;9.20;99.90
26537;DHT22;14204;51.262;5.488;2023-02-01T16:49:28;9.20;99.90
26537;DHT22;14204;51.262;5.488;2023-02-01T16:51:57;9.10;99.90
26537;DHT22;14204;51.262;5.488;2023-02-01T16:54:23;9.20;99.90
26537;DHT22;14204;51.262;5.488;2023-02-01T16:56:49;9.20;99.90
26537;DHT22;14204;51.262;5.488;2023-02-01T16:59:15;9.20;99.90
26537;DHT22;14204;51.262;5.488;2023-02-01T17:01:41;9.20;99.90
26537;DHT22;14204;51.262;5.488;2023-02-01T17:04:08;9.20;99.90
26537;DHT22;14204;51.262;5.488;2023-02-01T17:06:35;9.10;99.90
26537;DHT22;14204;51.262;5.488;2023-02-01T17:09:05;9.10;99.90
26537;DHT22;14204;51.262;5.488;2023-02-01T17:11:31;9.20;99.90
26537;DHT22;14204;51.262;5.488;2023-02-01T17:14:15;9.20;99.90
26537;DHT22;14204;51.262;5.488;2023-02-01T17:16:42;9.10;99.90
26537;DHT22;14204;51.262;5.488;2023-02-01T17:19:16;9.10;99.90
26537;DHT22;14204;51.262;5.488;2023-02-01T17:21:53;9.10;99.90
26537;DHT22;14204;51.262;5.488;2023-02-01T17:24:24;9.10;99.90
26537;DHT22;14204;51.262;5.488;2023-02-01T17:26:50;9.10;99.90
26537;DHT22;14204;51.262;5.488;2023-02-01T17:29:17;9.20;99.90
26537;DHT22;14204;51.262;5.488;2023-02-01T17:31:49;9.10;99.90
26537;DHT22;14204;51.262;5.488;2023-02-01T17:34:15;9.10;99.90
26537;DHT22;14204;51.262;5.488;2023-02-01T17:36:42;9.10;99.90
26537;DHT22;14204;51.262;5.488;2023-02-01T17:39:11;9.10;99.90
26537;DHT22;14204;51.262;5.488;2023-02-01T17:41:57;9.10;99.90
26537;DHT22;14204;51.262;5.488;2023-02-01T17:44:23;9.10;99.90
26537;DHT22;14204;51.262;5.488;2023-02-01T17:46:48;9.00;99.90
26537;DHT22;14204;51.262;5.488;2023-02-01T17:49:14;9.00;99.90
26537;DHT22;14204;51.262;5.488;2023-02-01T17:51:40;9.10;99.90
26537;DHT22;14204;51.262;5.488;2023-02-01T17:54:11;9.10;99.90
26537;DHT22;14204;51.262;5.488;2023-02-01T17:56:37;9.10;99.90
26537;DHT22;14204;51.262;5.488;2023-02-01T17:59:03;9.10;99.90
26537;DHT22;14204;51.262;5.488;2023-02-01T18:01:28;9.10;99.90
26537;DHT22;14204;51.262;5.488;2023-02-01T18:03:54;9.10;99.90
26537;DHT22;14204;51.262;5.488;2023-02-01T18:06:24;9.20;99.90
26537;DHT22;14204;51.262;5.488;2023-02-01T18:08:52;9.20;99.90
26537;DHT22;14204;51.262;5.488;2023-02-01T18:11:20;9.20;99.90
26537;DHT22;14204;51.262;5.488;2023-02-01T18:13:47;9.20;99.90
26537;DHT22;14204;51.262;5.488;2023-02-01T18:16:33;9.20;99.90
26537;DHT22;14204;51.262;5.488;2023-02-01T18:18:59;9.30;99.90
26537;DHT22;14204;51.262;5.488;2023-02-01T18:21:31;9.20;99.90
26537;DHT22;14204;51.262;5.488;2023-02-01T18:23:59;9.20;99.90
26537;DHT22;14204;51.262;5.488;2023-02-01T18:26:25;9.20;99.90